createdAt,value
2023-04-20T00:02:27.625Z,35.58
2023-04-20T00:04:56.230Z,35.43
2023-04-20T00:07:24.963Z,35.30
2023-04-20T00:09:53.230Z,35.45
2023-04-20T00:12:22.579Z,35.62
2023-04-20T00:14:50.920Z,35.71
2023-04-20T00:17:19.729Z,35.78
2023-04-20T00:19:48.183Z,35.63
2023-04-20T00:22:16.840Z,35.57
2023-04-20T00:24:45.247Z,35.50
2023-04-20T00:27:13.522Z,35.52
2023-04-20T00:29:41.911Z,35.54
2023-04-20T00:32:10.209Z,35.47
2023-04-20T00:34:38.476Z,35.43
2023-04-20T00:37:07.125Z,35.36
2023-04-20T00:39:35.913Z,35.44
2023-04-20T00:42:06.753Z,35.25
2023-04-20T00:44:35.733Z,35.32
2023-04-20T00:47:03.947Z,35.24
2023-04-20T00:49:34.712Z,35.20
2023-04-20T00:52:03.117Z,35.27
2023-04-20T00:54:32.700Z,35.48
2023-04-20T00:57:01.475Z,35.58
2023-04-20T00:59:29.869Z,35.43
2023-04-20T01:01:58.663Z,35.33
2023-04-20T01:04:27.255Z,35.40
2023-04-20T01:06:56.208Z,35.37
2023-04-20T01:09:24.548Z,35.42
2023-04-20T01:11:52.814Z,35.45
2023-04-20T01:14:21.414Z,35.58
2023-04-20T01:16:49.820Z,35.49
2023-04-20T01:19:18.482Z,35.48
2023-04-20T01:21:47.685Z,35.65
2023-04-20T01:24:17.677Z,35.53
2023-04-20T01:26:46.058Z,35.51
2023-04-20T01:29:14.440Z,35.66
2023-04-20T01:31:44.377Z,35.71
2023-04-20T01:34:12.762Z,35.78
2023-04-20T01:36:41.403Z,35.83
2023-04-20T01:39:10.274Z,35.76
2023-04-20T01:41:39.332Z,35.92
2023-04-20T01:44:07.829Z,35.92
2023-04-20T01:46:40.232Z,35.94
2023-04-20T01:49:08.965Z,35.98
2023-04-20T01:51:37.964Z,35.82
2023-04-20T01:54:06.428Z,36.01
2023-04-20T01:56:36.329Z,36.08
2023-04-20T01:59:04.719Z,36.13
2023-04-20T02:01:33.051Z,35.96
2023-04-20T02:04:02.065Z,36.18
2023-04-20T02:06:31.448Z,36.11
2023-04-20T02:08:59.727Z,36.23
2023-04-20T02:11:28.568Z,36.38
2023-04-20T02:13:57.614Z,36.37
2023-04-20T02:16:29.510Z,36.44
2023-04-20T02:18:58.095Z,36.25
2023-04-20T02:21:26.670Z,36.19
2023-04-20T02:23:55.007Z,36.30
2023-04-20T02:26:23.895Z,36.39
2023-04-20T02:28:52.325Z,36.20
2023-04-20T02:31:20.720Z,36.39
2023-04-20T02:33:50.133Z,36.52
2023-04-20T02:36:18.553Z,36.48
2023-04-20T02:38:46.850Z,36.46
2023-04-20T02:41:15.155Z,36.58
2023-04-20T02:43:43.405Z,36.55
2023-04-20T02:46:12.346Z,36.58
2023-04-20T02:48:40.759Z,36.56
2023-04-20T02:51:09.346Z,36.63
2023-04-20T02:53:43.390Z,36.53
2023-04-20T02:56:21.890Z,36.72
2023-04-20T02:58:54.545Z,36.74
2023-04-20T03:01:32.706Z,36.76
2023-04-20T03:04:13.063Z,36.56
2023-04-20T03:06:47.673Z,36.60
2023-04-20T03:09:19.257Z,36.50
2023-04-20T03:12:05.488Z,36.59
2023-04-20T03:15:00.070Z,36.45
2023-04-20T03:17:57.511Z,36.49
2023-04-20T03:20:26.681Z,36.27
2023-04-20T03:22:55.692Z,36.44
2023-04-20T03:25:25.881Z,36.24
2023-04-20T03:28:00.909Z,36.23
2023-04-20T03:30:30.627Z,36.27
2023-04-20T03:33:09.171Z,36.20
2023-04-20T03:35:39.632Z,36.28
2023-04-20T03:38:08.334Z,36.38
2023-04-20T03:40:38.525Z,36.22
2023-04-20T03:43:06.883Z,36.20
2023-04-20T03:45:35.183Z,36.20
2023-04-20T03:48:04.209Z,36.24
2023-04-20T03:50:33.171Z,36.29
2023-04-20T03:53:01.627Z,36.33
2023-04-20T03:55:30.948Z,36.08
2023-04-20T03:58:03.670Z,36.21
2023-04-20T04:00:39.504Z,36.01
2023-04-20T04:03:08.608Z,36.00
2023-04-20T04:05:37.958Z,36.01
2023-04-20T04:08:06.871Z,36.05
2023-04-20T04:10:35.332Z,35.99
2023-04-20T04:13:03.734Z,35.90
2023-04-20T04:15:32.890Z,35.99
2023-04-20T04:18:04.806Z,36.01
2023-04-20T04:20:33.469Z,35.94
2023-04-20T04:23:02.049Z,35.95
2023-04-20T04:25:42.672Z,36.14
2023-04-20T04:28:14.895Z,36.20
2023-04-20T04:30:57.670Z,36.17
2023-04-20T04:33:26.498Z,36.50
2023-04-20T04:35:55.436Z,36.63
2023-04-20T04:38:24.567Z,36.97
2023-04-20T04:40:54.257Z,37.20
2023-04-20T04:43:24.526Z,37.51
2023-04-20T04:46:11.092Z,37.43
2023-04-20T04:48:43.497Z,37.71
2023-04-20T04:51:12.278Z,37.72
2023-04-20T04:53:40.561Z,38.08
2023-04-20T04:56:09.431Z,38.69
2023-04-20T04:58:39.086Z,38.60
2023-04-20T05:01:07.722Z,38.82
2023-04-20T05:03:36.421Z,38.98
2023-04-20T05:06:05.112Z,39.22
2023-04-20T05:08:34.458Z,39.67
2023-04-20T05:11:02.986Z,39.73
2023-04-20T05:13:31.391Z,39.90
2023-04-20T05:15:59.723Z,39.72
2023-04-20T05:18:28.052Z,40.27
2023-04-20T05:20:56.565Z,40.66
2023-04-20T05:23:25.549Z,40.63
2023-04-20T05:25:53.793Z,40.96
2023-04-20T05:28:22.763Z,41.04
2023-04-20T05:30:51.064Z,41.51
2023-04-20T05:33:19.607Z,41.17
2023-04-20T05:35:49.328Z,41.26
2023-04-20T05:38:17.977Z,41.71
2023-04-20T05:40:46.384Z,42.13
2023-04-20T05:43:15.012Z,41.87
2023-04-20T05:45:43.675Z,42.33
2023-04-20T05:48:12.122Z,41.99
2023-04-20T05:50:40.596Z,41.97
2023-04-20T05:53:09.274Z,42.90
2023-04-20T05:55:37.633Z,43.29
2023-04-20T05:58:06.402Z,43.87
2023-04-20T06:00:35.440Z,43.89
2023-04-20T06:03:04.155Z,44.35
2023-04-20T06:05:34.195Z,46.31
2023-04-20T06:08:02.539Z,45.77
2023-04-20T06:10:32.707Z,46.10
2023-04-20T06:13:01.524Z,46.65
2023-04-20T06:15:29.988Z,46.28
2023-04-20T06:17:58.579Z,46.70
2023-04-20T06:20:27.282Z,46.98
2023-04-20T06:22:56.309Z,47.09
2023-04-20T06:25:24.815Z,46.64
2023-04-20T06:27:53.374Z,47.31
2023-04-20T06:30:21.880Z,48.32
2023-04-20T06:32:50.828Z,48.08
2023-04-20T06:35:19.675Z,48.39
2023-04-20T06:37:48.272Z,48.56
2023-04-20T06:40:16.894Z,47.96
2023-04-20T06:42:45.856Z,47.95
2023-04-20T06:45:14.363Z,48.53
2023-04-20T06:47:42.770Z,48.18
2023-04-20T06:50:11.535Z,49.02
2023-04-20T06:52:40.556Z,50.21
2023-04-20T06:55:09.502Z,48.96
2023-04-20T06:57:41.060Z,48.70
2023-04-20T07:00:10.833Z,48.43
2023-04-20T07:02:43.641Z,48.47
2023-04-20T07:05:12.463Z,48.72
2023-04-20T07:07:41.870Z,48.50
2023-04-20T07:10:11.622Z,48.68
2023-04-20T07:12:42.804Z,48.88
2023-04-20T07:15:12.505Z,48.09
2023-04-20T07:17:42.481Z,47.68
2023-04-20T07:20:11.275Z,47.63
2023-04-20T07:22:39.780Z,47.32
2023-04-20T07:25:09.165Z,47.54
2023-04-20T07:27:38.923Z,47.43
2023-04-20T07:30:09.036Z,47.50
2023-04-20T07:32:37.911Z,47.37
2023-04-20T07:35:06.675Z,47.74
2023-04-20T07:37:36.076Z,47.68
2023-04-20T07:40:07.035Z,47.70
2023-04-20T07:42:37.492Z,47.76
2023-04-20T07:45:09.370Z,47.76
2023-04-20T07:47:38.428Z,47.85
2023-04-20T07:50:08.305Z,47.65
2023-04-20T07:52:37.567Z,47.43
2023-04-20T07:55:08.428Z,47.27
2023-04-20T07:57:37.123Z,47.17
2023-04-20T08:00:07.443Z,46.98
2023-04-20T08:04:51.262Z,51.96
2023-04-20T08:07:19.937Z,46.77
2023-04-20T08:09:48.405Z,46.53
2023-04-20T08:12:16.838Z,46.57
2023-04-20T08:14:45.683Z,46.48
2023-04-20T08:17:14.212Z,46.31
2023-04-20T08:19:44.660Z,46.25
2023-04-20T08:22:14.394Z,46.12
2023-04-20T08:24:42.764Z,46.08
2023-04-20T08:27:11.117Z,46.34
2023-04-20T08:29:40.061Z,46.57
2023-04-20T08:32:12.801Z,46.85
2023-04-20T08:34:41.213Z,46.81
2023-04-20T08:37:09.968Z,47.39
2023-04-20T08:39:39.275Z,47.60
2023-04-20T08:42:07.854Z,47.67
2023-04-20T08:44:36.082Z,48.38
2023-04-20T08:47:04.473Z,48.73
2023-04-20T08:49:33.749Z,48.62
2023-04-20T08:52:02.104Z,48.78
2023-04-20T08:54:30.576Z,48.61
2023-04-20T08:56:59.963Z,48.53
2023-04-20T08:59:28.308Z,49.02
2023-04-20T09:01:56.885Z,48.88
2023-04-20T09:04:27.183Z,49.15
2023-04-20T09:06:56.666Z,49.20
2023-04-20T09:09:25.903Z,49.28
2023-04-20T09:12:07.899Z,49.43
2023-04-20T09:14:45.355Z,50.20
2023-04-20T09:17:15.607Z,49.77
2023-04-20T09:19:44.904Z,50.12
2023-04-20T09:22:13.230Z,50.71
2023-04-20T09:24:42.824Z,50.49
2023-04-20T09:27:18.143Z,51.64
2023-04-20T09:30:00.388Z,51.24
2023-04-20T09:32:29.881Z,51.64
2023-04-20T09:34:58.519Z,51.42
2023-04-20T09:37:27.124Z,51.30
2023-04-20T09:39:56.185Z,51.79
2023-04-20T09:42:24.478Z,51.38
2023-04-20T09:44:52.916Z,52.11
2023-04-20T09:47:21.630Z,51.57
2023-04-20T09:49:50.326Z,51.98
2023-04-20T09:52:19.048Z,52.36
2023-04-20T09:54:47.638Z,51.64
2023-04-20T09:57:16.510Z,51.97
2023-04-20T09:59:46.885Z,52.36
2023-04-20T10:02:15.412Z,51.92
2023-04-20T10:04:57.290Z,51.82
2023-04-20T10:07:27.186Z,51.87
2023-04-20T10:10:09.997Z,52.73
2023-04-20T10:12:55.714Z,52.37
2023-04-20T10:15:25.112Z,52.07
2023-04-20T10:17:53.698Z,52.20
2023-04-20T10:20:22.917Z,51.53
2023-04-20T10:22:54.977Z,51.50
2023-04-20T10:25:24.633Z,51.63
2023-04-20T10:27:57.793Z,51.82
2023-04-20T10:30:26.951Z,51.41
2023-04-20T10:33:04.774Z,51.62
2023-04-20T10:35:45.704Z,52.43
2023-04-20T10:38:14.717Z,52.24
2023-04-20T10:40:43.226Z,52.04
2023-04-20T10:43:24.304Z,52.03
2023-04-20T10:45:53.588Z,52.19
2023-04-20T10:48:22.322Z,52.05
2023-04-20T10:50:50.835Z,52.37
2023-04-20T10:53:22.830Z,52.50
2023-04-20T10:56:01.297Z,52.20
2023-04-20T10:58:29.827Z,51.93
2023-04-20T11:01:02.286Z,51.90
2023-04-20T11:03:31.601Z,51.41
2023-04-20T11:06:01.925Z,51.67
2023-04-20T11:08:40.569Z,51.29
2023-04-20T11:11:20.728Z,51.62
2023-04-20T11:13:49.221Z,51.36
2023-04-20T11:16:18.724Z,51.41
2023-04-20T11:18:54.607Z,51.33
2023-04-20T11:21:22.961Z,51.34
2023-04-20T11:23:51.654Z,51.55
2023-04-20T11:26:20.040Z,51.52
2023-04-20T11:28:56.191Z,52.13
2023-04-20T11:31:27.270Z,52.67
2023-04-20T11:33:55.856Z,53.01
2023-04-20T11:36:24.896Z,53.62
2023-04-20T11:38:53.254Z,53.87
2023-04-20T11:41:21.994Z,54.20
2023-04-20T11:43:51.455Z,55.35
2023-04-20T11:46:20.745Z,55.33
2023-04-20T11:48:49.871Z,55.73
2023-04-20T11:51:18.206Z,55.21
2023-04-20T11:53:46.840Z,55.54
2023-04-20T11:56:15.452Z,55.63
2023-04-20T11:58:44.002Z,56.06
2023-04-20T12:01:13.399Z,55.75
2023-04-20T12:03:42.029Z,55.96
2023-04-20T12:06:11.138Z,56.24
2023-04-20T12:08:39.583Z,55.81
2023-04-20T12:11:08.149Z,55.85
2023-04-20T12:13:37.014Z,55.20
2023-04-20T12:16:05.805Z,55.27
2023-04-20T12:18:34.342Z,55.23
2023-04-20T12:21:02.770Z,54.81
2023-04-20T12:23:31.458Z,54.25
2023-04-20T12:25:59.978Z,54.63
2023-04-20T12:28:28.349Z,54.25
2023-04-20T12:30:56.765Z,54.42
2023-04-20T12:33:25.216Z,54.05
2023-04-20T12:35:54.438Z,53.67
2023-04-20T12:38:22.960Z,53.91
2023-04-20T12:40:51.713Z,53.78
2023-04-20T12:43:20.004Z,53.29
2023-04-20T12:45:48.817Z,52.84
2023-04-20T12:48:20.715Z,52.96
2023-04-20T12:50:49.850Z,52.56
2023-04-20T12:53:18.317Z,51.65
2023-04-20T12:55:46.822Z,51.45
2023-04-20T12:58:16.370Z,51.35
2023-04-20T13:00:45.044Z,51.32
2023-04-20T13:03:13.685Z,51.09
2023-04-20T13:05:42.649Z,50.68
2023-04-20T13:08:11.484Z,50.36
2023-04-20T13:10:40.195Z,50.30
2023-04-20T13:13:12.055Z,49.69
2023-04-20T13:15:41.074Z,49.67
2023-04-20T13:18:13.831Z,49.33
2023-04-20T13:20:42.270Z,49.27
2023-04-20T13:23:10.803Z,49.26
2023-04-20T13:25:39.264Z,48.57
2023-04-20T13:28:08.211Z,49.07
2023-04-20T13:30:38.201Z,49.10
2023-04-20T13:33:07.114Z,49.12
2023-04-20T13:35:36.499Z,49.18
2023-04-20T13:38:05.188Z,48.82
2023-04-20T13:40:34.490Z,48.57
2023-04-20T13:43:02.973Z,48.42
2023-04-20T13:45:31.706Z,48.34
2023-04-20T13:48:00.139Z,47.85
2023-04-20T13:50:28.652Z,47.35
2023-04-20T13:52:56.893Z,47.64
2023-04-20T13:55:26.907Z,47.66
2023-04-20T13:57:55.529Z,47.58
2023-04-20T14:00:24.108Z,47.57
2023-04-20T14:02:52.594Z,47.31
2023-04-20T14:05:21.251Z,46.51
2023-04-20T14:07:49.777Z,46.65
2023-04-20T14:10:18.189Z,46.05
2023-04-20T14:12:47.015Z,45.95
2023-04-20T14:15:15.622Z,45.98
2023-04-20T14:17:44.053Z,46.34
2023-04-20T14:20:12.781Z,46.06
2023-04-20T14:22:43.856Z,46.08
2023-04-20T14:25:12.373Z,45.39
2023-04-20T14:27:40.940Z,45.47
2023-04-20T14:30:10.183Z,45.44
2023-04-20T14:32:39.013Z,45.39
2023-04-20T14:35:09.364Z,45.48
2023-04-20T14:37:37.653Z,45.83
2023-04-20T14:40:07.936Z,45.90
2023-04-20T14:42:36.573Z,45.78
2023-04-20T14:45:05.638Z,45.81
2023-04-20T14:47:34.122Z,45.85
2023-04-20T14:50:02.540Z,45.74
2023-04-20T14:52:31.294Z,45.23
2023-04-20T14:54:59.809Z,45.18
2023-04-20T14:57:28.923Z,44.78
2023-04-20T14:59:57.521Z,44.75
2023-04-20T15:02:26.160Z,44.63
2023-04-20T15:04:57.382Z,44.23
2023-04-20T15:07:28.052Z,44.04
2023-04-20T15:09:56.401Z,44.14
2023-04-20T15:12:24.790Z,43.62
2023-04-20T15:14:53.491Z,43.56
2023-04-20T15:17:21.824Z,43.54
2023-04-20T15:19:50.316Z,43.52
2023-04-20T15:22:19.169Z,43.54
2023-04-20T15:24:47.617Z,42.97
2023-04-20T15:27:17.294Z,42.94
2023-04-20T15:29:45.807Z,42.69
2023-04-20T15:32:14.526Z,43.01
2023-04-20T15:34:43.189Z,42.70
2023-04-20T15:37:11.597Z,42.65
2023-04-20T15:39:40.105Z,42.15
2023-04-20T15:42:08.698Z,41.98
2023-04-20T15:44:37.551Z,42.19
2023-04-20T15:47:05.967Z,41.54
2023-04-20T15:49:37.411Z,41.88
2023-04-20T15:52:05.662Z,41.27
2023-04-20T15:54:34.616Z,41.56
2023-04-20T15:57:03.984Z,41.02
2023-04-20T15:59:32.856Z,41.49
2023-04-20T16:02:01.357Z,41.28
2023-04-20T16:04:30.165Z,41.59
2023-04-20T16:06:58.779Z,41.46
2023-04-20T16:09:27.128Z,41.18
2023-04-20T16:11:55.691Z,41.32
2023-04-20T16:14:24.273Z,40.82
2023-04-20T16:16:52.832Z,41.08
2023-04-20T16:19:21.167Z,41.02
2023-04-20T16:21:49.494Z,41.03
2023-04-20T16:24:18.139Z,41.01
2023-04-20T16:26:46.919Z,40.97
2023-04-20T16:29:15.275Z,41.12
2023-04-20T16:31:43.810Z,40.81
2023-04-20T16:34:12.194Z,41.05
2023-04-20T16:36:41.084Z,40.75
2023-04-20T16:39:10.318Z,40.67
2023-04-20T16:41:38.618Z,40.72
2023-04-20T16:44:07.066Z,40.64
2023-04-20T16:46:35.884Z,41.19
2023-04-20T16:49:04.147Z,41.50
2023-04-20T16:51:33.506Z,41.07
2023-04-20T16:54:02.071Z,41.05
2023-04-20T16:56:30.321Z,41.36
2023-04-20T16:58:58.632Z,41.63
2023-04-20T17:01:27.006Z,41.52
2023-04-20T17:03:55.479Z,42.21
2023-04-20T17:06:24.074Z,42.20
2023-04-20T17:08:55.491Z,42.83
2023-04-20T17:11:23.967Z,43.34
2023-04-20T17:13:53.022Z,43.45
2023-04-20T17:16:22.060Z,43.62
2023-04-20T17:18:52.152Z,43.83
2023-04-20T17:21:20.734Z,44.18
2023-04-20T17:23:49.151Z,44.17
2023-04-20T17:26:17.604Z,44.58
2023-04-20T17:28:46.597Z,43.75
2023-04-20T17:31:15.271Z,43.22
2023-04-20T17:33:45.132Z,43.20
2023-04-20T17:36:13.529Z,42.99
2023-04-20T17:38:43.372Z,43.31
2023-04-20T17:41:12.083Z,43.48
2023-04-20T17:43:41.223Z,43.40
2023-04-20T17:46:09.583Z,43.47
2023-04-20T17:48:37.961Z,43.49
2023-04-20T17:51:06.496Z,43.80
2023-04-20T17:53:34.828Z,44.53
2023-04-20T17:56:03.792Z,45.35
2023-04-20T17:58:32.536Z,44.87
2023-04-20T18:01:01.114Z,45.27
2023-04-20T18:03:29.546Z,44.94
2023-04-20T18:05:59.121Z,45.02
2023-04-20T18:08:29.456Z,45.66
2023-04-20T18:10:57.667Z,44.74
2023-04-20T18:13:26.436Z,44.63
2023-04-20T18:15:54.811Z,44.32
2023-04-20T18:18:23.182Z,44.08
2023-04-20T18:20:51.962Z,44.22
2023-04-20T18:23:20.427Z,44.11
2023-04-20T18:25:48.691Z,44.87
2023-04-20T18:28:16.938Z,45.31
2023-04-20T18:30:45.267Z,45.03
2023-04-20T18:33:15.585Z,44.42
2023-04-20T18:35:44.640Z,44.07
2023-04-20T18:38:13.023Z,43.91
2023-04-20T18:40:41.882Z,43.87
2023-04-20T18:43:10.619Z,43.94
2023-04-20T18:45:39.276Z,43.83
2023-04-20T18:48:07.820Z,43.84
2023-04-20T18:50:36.377Z,43.51
2023-04-20T18:53:05.387Z,43.76
2023-04-20T18:55:33.803Z,43.97
2023-04-20T18:58:02.183Z,43.91
2023-04-20T19:00:31.118Z,43.74
2023-04-20T19:02:59.596Z,43.66
2023-04-20T19:05:28.061Z,43.55
2023-04-20T19:07:56.565Z,43.60
2023-04-20T19:10:25.887Z,43.29
2023-04-20T19:12:55.743Z,43.45
2023-04-20T19:15:25.936Z,43.57
2023-04-20T19:17:57.743Z,43.28
2023-04-20T19:20:26.449Z,43.63
2023-04-20T19:22:54.926Z,43.93
2023-04-20T19:25:23.513Z,44.27
2023-04-20T19:27:52.219Z,44.22
2023-04-20T19:30:20.788Z,44.19
2023-04-20T19:32:49.432Z,44.27
2023-04-20T19:35:17.848Z,44.56
2023-04-20T19:37:46.810Z,44.44
2023-04-20T19:40:15.175Z,44.57
2023-04-20T19:42:43.513Z,44.78
2023-04-20T19:45:11.863Z,44.77
2023-04-20T19:47:40.296Z,44.77
2023-04-20T19:50:09.017Z,44.78
2023-04-20T19:52:37.704Z,44.96
2023-04-20T19:55:06.623Z,44.86
2023-04-20T19:57:35.125Z,45.08
2023-04-20T20:00:04.930Z,45.14
2023-04-20T20:02:41.891Z,45.23
2023-04-20T20:05:10.672Z,45.17
2023-04-20T20:07:38.944Z,45.21
2023-04-20T20:10:08.011Z,45.21
2023-04-20T20:12:36.778Z,45.38
2023-04-20T20:15:05.742Z,45.28
2023-04-20T20:17:34.678Z,45.12
2023-04-20T20:21:16.108Z,49.35
2023-04-20T20:23:44.681Z,44.78
2023-04-20T20:26:13.107Z,44.44
2023-04-20T20:28:41.535Z,44.39
2023-04-20T20:31:10.179Z,44.44
2023-04-20T20:33:38.400Z,44.37
2023-04-20T20:36:07.093Z,44.22
2023-04-20T20:38:35.829Z,44.08
2023-04-20T20:41:06.804Z,44.06
2023-04-20T20:43:35.202Z,44.23
2023-04-20T20:46:03.649Z,44.56
2023-04-20T20:48:31.914Z,44.67
2023-04-20T20:51:00.291Z,44.76
2023-04-20T20:53:28.909Z,44.68
2023-04-20T20:55:57.443Z,44.94
2023-04-20T20:58:25.925Z,44.75
2023-04-20T21:00:54.352Z,44.68
2023-04-20T21:03:23.560Z,44.45
2023-04-20T21:05:52.190Z,44.70
2023-04-20T21:08:20.877Z,44.77
2023-04-20T21:10:49.441Z,44.86
2023-04-20T21:13:19.745Z,44.69
2023-04-20T21:15:48.250Z,44.67
2023-04-20T21:18:16.789Z,44.64
2023-04-20T21:20:45.046Z,44.58
2023-04-20T21:23:13.601Z,44.75
2023-04-20T21:25:41.882Z,44.66
2023-04-20T21:28:11.052Z,44.65
2023-04-20T21:30:39.488Z,44.84
2023-04-20T21:33:07.821Z,44.95
2023-04-20T21:35:36.641Z,44.95
2023-04-20T21:38:05.044Z,44.85
2023-04-20T21:40:34.394Z,44.95
2023-04-20T21:43:02.979Z,45.22
2023-04-20T21:45:31.352Z,45.96
2023-04-20T21:47:59.645Z,45.85
2023-04-20T21:50:28.805Z,45.62
2023-04-20T21:52:57.193Z,45.65
2023-04-20T21:55:25.606Z,45.60
2023-04-20T21:57:54.035Z,45.49
2023-04-20T22:00:22.848Z,45.79
2023-04-20T22:02:51.899Z,45.77
2023-04-20T22:05:20.456Z,45.90
2023-04-20T22:07:49.320Z,45.97
2023-04-20T22:10:17.583Z,46.02
2023-04-20T22:12:46.649Z,45.89
2023-04-20T22:15:15.287Z,46.03
2023-04-20T22:17:47.904Z,46.21
2023-04-20T22:20:17.174Z,46.19
2023-04-20T22:22:46.002Z,46.00
2023-04-20T22:25:14.235Z,45.91
2023-04-20T22:27:42.698Z,45.99
2023-04-20T22:30:11.561Z,45.97
2023-04-20T22:32:41.249Z,46.13
2023-04-20T22:35:10.422Z,46.10
2023-04-20T22:37:38.806Z,45.98
2023-04-20T22:40:08.122Z,45.86
2023-04-20T22:42:36.721Z,46.02
2023-04-20T22:45:05.726Z,46.22
2023-04-20T22:47:35.258Z,46.13
2023-04-20T22:50:04.005Z,46.30
2023-04-20T22:52:32.592Z,46.42
2023-04-20T22:55:01.027Z,46.40
2023-04-20T22:57:29.703Z,46.37
2023-04-20T22:59:57.948Z,46.49
2023-04-20T23:02:27.056Z,46.29
2023-04-20T23:04:56.011Z,46.29
2023-04-20T23:07:24.344Z,46.17
2023-04-20T23:09:53.925Z,46.31
2023-04-20T23:12:22.689Z,46.43
2023-04-20T23:14:50.962Z,46.57
2023-04-20T23:17:19.302Z,46.48
2023-04-20T23:19:47.914Z,46.43
2023-04-20T23:22:16.682Z,46.36
2023-04-20T23:24:45.639Z,46.32
2023-04-20T23:27:14.073Z,46.34
2023-04-20T23:29:42.346Z,46.82
2023-04-20T23:32:11.080Z,46.56
2023-04-20T23:34:39.758Z,46.50
2023-04-20T23:37:08.160Z,46.59
2023-04-20T23:39:37.791Z,46.47
2023-04-20T23:42:06.490Z,46.38
2023-04-20T23:44:35.510Z,46.23
2023-04-20T23:47:04.336Z,46.34
2023-04-20T23:49:32.647Z,46.49
2023-04-20T23:52:01.243Z,46.42
2023-04-20T23:54:31.237Z,46.45
2023-04-20T23:57:01.412Z,46.50
2023-04-20T23:59:29.838Z,46.26
